Loretto, Minnesota
Current Conditions -  °F | °C
As of 2:35 PM on Saturday 25 Oct 2014 (Local Time) from KCFE Reporting Station
Clear Clear  
Wind Chill: 62°   Ceiling: Unl
Heat Index: 62°   Visibility: 10mi
Dew Point: 28°   Wind: 18mph
Humidity: 27%   Direction: 270°W
Pressure: 30.06"   Gusts: 22mph
Location:  45.06°N, 93.64°W
Report Text: KCFE 251935Z AUTO 27016G19KT 10SM CLR 17/M02 A3006 RMK AO2 T01671025
Loading
Personal Weather Stations






























Interactive Weather Map
Tropical Storm Tracking
New forecast layout! Learn more

10-Day Weather Forecast

Advertisements
Track Severe Weather on mobile